Time;durP1;ratioP1;P1;durP2;ratioP2;P2;SDS_P1;SDS_P2;PMS_P1;PMS_P2;Temp;Humidity;BMP_temperature;BMP_pressure;BME280_temperature;BME280_humidity;BME280_pressure;Samples;Min_cycle;Max_cycle;Signal;HPM_P1;HPM_P2
2021/04/22 04:45:36;;;;;;;23.25;16.90;;;;;;;6.28;84.43;100417.39;1758812;80;21510;-35
2021/04/22 04:48:06;;;;;;;29.25;17.32;;;;;;;6.44;83.93;100419.86;1758055;80;21167;-36
2021/04/22 04:50:33;;;;;;;18.98;14.20;;;;;;;6.56;83.76;100416.19;1759107;80;21686;-37
2021/04/22 04:53:02;;;;;;;21.85;15.80;;;;;;;6.68;83.29;100410.33;1758170;80;21671;-38
2021/04/22 04:55:30;;;;;;;24.55;15.40;;;;;;;6.81;82.95;100410.11;1765008;80;21814;-40
2021/04/22 04:57:59;;;;;;;23.62;14.50;;;;;;;6.93;82.15;100407.28;1763704;80;21178;-36
2021/04/22 05:00:34;;;;;;;23.00;17.25;;;;;;;7.04;81.58;100406.59;1741895;80;21163;-36
2021/04/22 05:03:02;;;;;;;21.85;16.15;;;;;;;7.14;81.66;100409.36;1763217;80;21110;-36
2021/04/22 05:05:30;;;;;;;24.65;14.40;;;;;;;7.26;81.42;100406.50;1755074;80;21175;-36
2021/04/22 05:07:58;;;;;;;22.93;14.45;;;;;;;7.38;80.96;100409.28;1760262;80;21305;-36
2021/04/22 05:10:26;;;;;;;19.77;13.30;;;;;;;7.50;80.31;100408.58;1762180;80;21628;-41
2021/04/22 05:12:54;;;;;;;17.20;13.32;;;;;;;7.61;79.98;100405.70;1758064;80;21483;-37
2021/04/22 05:15:23;;;;;;;20.23;14.70;;;;;;;7.72;79.31;100407.59;1760224;80;21294;-37
2021/04/22 05:17:52;;;;;;;22.17;14.05;;;;;;;7.84;79.06;100408.62;1763003;80;21859;-35
2021/04/22 05:20:21;;;;;;;20.60;15.03;;;;;;;7.95;78.35;100409.63;1762510;80;21297;-36
2021/04/22 05:22:48;;;;;;;20.40;12.68;;;;;;;8.06;78.45;100409.73;1751586;80;21152;-36
2021/04/22 05:25:16;;;;;;;17.15;12.20;;;;;;;8.19;77.34;100416.43;1759170;80;21473;-37
2021/04/22 05:27:44;;;;;;;36.60;15.23;;;;;;;8.28;77.16;100406.09;1757873;80;21515;-42
2021/04/22 05:30:16;;;;;;;18.15;12.85;;;;;;;8.39;76.98;100405.37;1753156;80;21199;-41
2021/04/22 05:32:48;;;;;;;18.05;12.60;;;;;;;8.52;76.91;100413.36;1756713;80;21616;-36
2021/04/22 05:35:17;;;;;;;16.13;12.30;;;;;;;8.66;76.42;100419.13;1743190;80;21189;-36
2021/04/22 05:37:47;;;;;;;18.60;12.98;;;;;;;8.77;75.84;100414.45;1754506;80;21143;-42
2021/04/22 05:40:17;;;;;;;31.97;14.73;;;;;;;8.89;75.44;100413.69;1751725;80;21716;-41
2021/04/22 05:42:48;;;;;;;21.12;14.03;;;;;;;9.01;74.30;100422.05;1755014;80;21320;-36
2021/04/22 05:45:17;;;;;;;21.87;13.20;;;;;;;9.10;74.35;100418.19;1753913;80;21197;-43
2021/04/22 05:47:46;;;;;;;24.12;13.95;;;;;;;9.21;73.76;100423.06;1754278;80;21156;-40
2021/04/22 05:50:17;;;;;;;22.30;14.73;;;;;;;9.32;73.04;100417.49;1743308;80;21299;-35
2021/04/22 05:52:45;;;;;;;18.85;13.45;;;;;;;9.42;72.83;100416.27;1756512;80;21681;-37
2021/04/22 05:55:14;;;;;;;27.98;14.63;;;;;;;9.52;72.30;100420.69;1759971;80;21501;-35
2021/04/22 05:57:43;;;;;;;19.75;12.63;;;;;;;9.62;72.07;100418.55;1753680;80;21167;-36
2021/04/22 06:00:15;;;;;;;23.57;13.25;;;;;;;9.73;72.22;100423.41;1756117;80;21208;-36
2021/04/22 06:02:44;;;;;;;21.97;13.22;;;;;;;9.86;71.45;100421.75;1757110;80;21743;-41
2021/04/22 06:05:13;;;;;;;21.20;11.57;;;;;;;9.98;71.49;100417.89;1758236;80;21504;-40
2021/04/22 06:07:43;;;;;;;17.45;11.33;;;;;;;10.11;70.67;100421.42;1756016;79;21149;-40
2021/04/22 06:10:13;;;;;;;19.77;12.18;;;;;;;10.20;70.67;100407.49;1758243;80;21355;-40
2021/04/22 06:12:45;;;;;;;17.12;13.10;;;;;;;10.32;71.29;100410.17;1738351;80;21842;-40
2021/04/22 06:15:14;;;;;;;19.40;11.30;;;;;;;10.45;71.13;100415.90;1756406;80;21513;-37
2021/04/22 06:17:48;;;;;;;15.95;10.75;;;;;;;10.58;71.19;100415.48;1758370;80;21164;-37
2021/04/22 06:20:33;;;;;;;20.10;11.38;;;;;;;10.72;70.67;100415.05;1716030;80;21136;-43
2021/04/22 06:23:33;;;;;;;18.85;11.70;;;;;;;10.82;69.72;100412.89;1677159;82;22183;-36
2021/04/22 06:31:18;;;;;;;14.53;10.85;;;;;;;11.01;69.64;100416.82;1757038;80;21318;-37
2021/04/22 06:40:00;;;;;;;11.35;9.83;;;;;;;11.39;69.13;100425.98;1762297;80;21135;-36
2021/04/22 06:43:47;;;;;;;16.32;9.95;;;;;;;11.64;68.66;100421.12;1770846;80;21646;-41
2021/04/22 06:47:53;;;;;;;16.25;9.65;;;;;;;11.84;66.86;100418.49;1757831;80;21666;-36
2021/04/22 06:51:22;;;;;;;14.87;9.40;;;;;;;12.01;67.07;100421.50;1757822;80;21895;-41
2021/04/22 06:54:22;;;;;;;11.00;8.08;;;;;;;12.21;66.87;100422.27;1752969;80;21341;-40
2021/04/22 06:56:51;;;;;;;13.05;8.90;;;;;;;12.40;65.73;100426.98;1763356;80;21156;-36
2021/04/22 06:59:21;;;;;;;18.65;8.30;;;;;;;12.53;65.79;100426.05;1710515;80;21731;-37
2021/04/22 07:01:52;;;;;;;13.32;9.08;;;;;;;12.66;64.16;100421.59;1756343;80;21883;-41
2021/04/22 07:04:26;;;;;;;14.05;8.98;;;;;;;12.77;64.14;100419.77;1759393;80;21200;-36
2021/04/22 07:06:54;;;;;;;14.10;9.63;;;;;;;12.89;64.17;100422.30;1743252;80;21605;-37
2021/04/22 07:09:27;;;;;;;13.72;9.38;;;;;;;13.01;63.45;100417.40;1754698;80;21841;-37
2021/04/22 07:12:00;;;;;;;14.45;8.80;;;;;;;13.14;61.59;100417.72;1703383;81;21319;-36
2021/04/22 07:14:33;;;;;;;11.15;8.10;;;;;;;13.26;61.57;100420.27;1698292;81;21309;-41
2021/04/22 07:17:58;;;;;;;13.70;8.58;;;;;;;13.41;61.26;100424.52;1760331;80;21177;-42
2021/04/22 07:25:42;;;;;;;10.38;7.15;;;;;;;13.70;59.51;100429.48;1765648;80;21143;-36
2021/04/22 07:28:11;;;;;;;14.73;8.00;;;;;;;13.91;58.20;100424.86;1765288;80;21155;-36
2021/04/22 07:30:39;;;;;;;9.03;7.37;;;;;;;14.00;58.18;100420.82;1758840;80;21204;-40
2021/04/22 07:33:10;;;;;;;12.20;7.22;;;;;;;14.12;57.40;100419.35;1757415;80;21187;-41
2021/04/22 07:35:46;;;;;;;8.35;6.35;;;;;;;14.26;57.28;100420.48;1738476;80;21603;-40
2021/04/22 07:38:16;;;;;;;11.30;6.22;;;;;;;14.38;55.87;100417.27;1740394;80;21131;-37
2021/04/22 07:40:47;;;;;;;8.53;5.33;;;;;;;14.49;54.36;100427.66;1758388;80;21717;-41
2021/04/22 07:43:15;;;;;;;8.83;5.60;;;;;;;14.55;55.04;100417.48;1757959;80;21123;-37
2021/04/22 07:45:43;;;;;;;8.63;5.72;;;;;;;14.64;55.24;100411.65;1759275;80;21150;-37
2021/04/22 07:48:12;;;;;;;8.13;5.30;;;;;;;14.77;53.79;100420.68;1757512;80;21190;-37
2021/04/22 07:50:41;;;;;;;7.95;5.80;;;;;;;14.87;53.16;100424.92;1758989;80;21199;-36
2021/04/22 07:53:09;;;;;;;7.83;6.12;;;;;;;14.95;52.64;100430.92;1753842;80;21717;-36
2021/04/22 07:55:41;;;;;;;10.63;6.58;;;;;;;15.01;53.04;100416.33;1726899;81;21164;-36
2021/04/22 07:58:09;;;;;;;9.03;4.80;;;;;;;15.08;52.18;100414.50;1760055;80;21176;-37
2021/04/22 08:00:37;;;;;;;8.43;5.62;;;;;;;15.16;51.36;100423.13;1759979;80;21183;-37
2021/04/22 08:03:06;;;;;;;8.10;5.42;;;;;;;15.22;52.00;100416.44;1760672;80;21152;-42
2021/04/22 08:05:36;;;;;;;6.30;5.12;;;;;;;15.30;51.63;100421.56;1761173;80;21500;-36
2021/04/22 08:08:10;;;;;;;5.28;4.40;;;;;;;15.41;51.49;100415.66;1763139;80;21124;-37
2021/04/22 08:10:45;;;;;;;5.20;4.00;;;;;;;15.53;50.66;100414.56;1760988;80;21147;-37
2021/04/22 08:13:16;;;;;;;6.53;4.87;;;;;;;15.64;49.45;100417.91;1733724;80;21135;-37
2021/04/22 08:15:48;;;;;;;7.30;4.97;;;;;;;15.76;49.35;100402.30;1757139;80;21732;-42
2021/04/22 08:18:35;;;;;;;12.60;5.35;;;;;;;15.88;49.45;100417.43;1758670;80;21647;-41
2021/04/22 08:21:51;;;;;;;7.60;5.15;;;;;;;15.96;49.06;100421.26;1754066;80;22141;-42
2021/04/22 08:24:50;;;;;;;8.25;5.00;;;;;;;16.07;50.43;100409.17;1753226;80;21653;-37
2021/04/22 08:27:25;;;;;;;6.80;5.58;;;;;;;16.18;51.57;100420.37;1736044;81;21177;-36
2021/04/22 08:30:21;;;;;;;7.30;5.50;;;;;;;16.29;51.19;100418.80;1761252;80;21591;-35
2021/04/22 08:32:58;;;;;;;9.05;5.35;;;;;;;16.40;49.73;100415.48;1758140;80;21187;-37
2021/04/22 08:35:26;;;;;;;6.92;5.20;;;;;;;16.49;50.68;100406.05;1757024;80;21179;-42
2021/04/22 08:37:54;;;;;;;8.73;5.03;;;;;;;16.61;49.36;100411.50;1724275;81;21212;-37
2021/04/22 08:41:11;;;;;;;6.65;5.15;;;;;;;16.72;48.79;100404.23;1765998;80;21623;-36
2021/04/22 08:44:35;;;;;;;7.22;4.87;;;;;;;16.87;48.03;100409.16;1761214;80;21785;-42
2021/04/22 08:47:08;;;;;;;7.40;5.08;;;;;;;16.99;48.39;100401.39;1736437;80;21453;-36
2021/04/22 08:49:39;;;;;;;10.25;4.35;;;;;;;17.12;48.09;100408.10;1721937;82;21313;-48
2021/04/22 08:52:18;;;;;;;7.42;5.42;;;;;;;17.18;45.67;100400.02;1716160;81;21219;-41
2021/04/22 08:54:47;;;;;;;11.20;4.15;;;;;;;17.26;45.16;100390.09;1716490;81;21168;-37
2021/04/22 08:57:20;;;;;;;8.53;3.87;;;;;;;17.33;45.69;100400.06;1722288;82;21650;-36
2021/04/22 08:59:52;;;;;;;6.00;4.25;;;;;;;17.38;43.51;100406.09;1720800;82;21209;-42
2021/04/22 09:02:19;;;;;;;9.53;3.80;;;;;;;17.42;42.92;100414.38;1723072;82;21610;-41
2021/04/22 09:04:59;;;;;;;5.55;3.30;;;;;;;17.43;43.46;100398.05;1718282;82;21198;-41
2021/04/22 09:12:27;;;;;;;6.12;3.70;;;;;;;17.40;43.31;100394.18;1717122;82;21293;-36
2021/04/22 09:19:31;;;;;;;5.60;4.05;;;;;;;17.33;42.47;100382.00;1720523;81;21128;-42
2021/04/22 09:23:48;;;;;;;3.33;3.02;;;;;;;17.53;44.51;100387.19;1715836;82;21162;-37
2021/04/22 09:32:16;;;;;;;10.98;3.65;;;;;;;17.76;42.17;100391.88;1719030;82;21677;-40
2021/04/22 09:36:18;;;;;;;6.92;3.40;;;;;;;17.63;40.15;100380.34;1710849;81;21179;-40
2021/04/22 09:39:43;;;;;;;4.20;2.90;;;;;;;17.38;42.23;100382.30;1717525;81;21335;-41
2021/04/22 09:42:18;;;;;;;8.50;4.00;;;;;;;17.54;41.03;100379.66;1716007;81;21337;-35
2021/04/22 09:45:08;;;;;;;12.20;3.20;;;;;;;17.71;41.37;100377.01;1723575;81;21171;-36
2021/04/22 09:47:52;;;;;;;4.90;3.30;;;;;;;17.65;39.96;100372.76;1673633;81;21459;-36
2021/04/22 09:50:25;;;;;;;7.87;3.50;;;;;;;17.69;39.54;100370.91;1730431;81;21116;-42
2021/04/22 09:52:58;;;;;;;6.10;3.35;;;;;;;17.81;41.07;100354.25;1731514;81;21645;-41
2021/04/22 09:55:31;;;;;;;10.98;3.65;;;;;;;17.95;40.23;100362.23;1708240;81;21688;-41
2021/04/22 09:58:01;;;;;;;4.35;2.72;;;;;;;18.06;40.91;100372.92;1729003;81;21170;-41
2021/04/22 10:01:14;;;;;;;5.87;3.20;;;;;;;18.01;41.70;100352.80;1678031;83;21545;-41
2021/04/22 10:04:23;;;;;;;7.22;3.60;;;;;;;17.90;41.04;100355.75;1670415;84;21153;-35
2021/04/22 10:07:44;;;;;;;5.30;3.05;;;;;;;17.91;36.15;100369.39;1669210;83;21918;-37
2021/04/22 10:10:32;;;;;;;3.30;2.70;;;;;;;17.82;37.97;100341.89;1657594;83;21643;-43
2021/04/22 10:13:17;;;;;;;3.58;2.60;;;;;;;17.77;38.14;100368.47;1688047;83;21182;-36
2021/04/22 10:16:00;;;;;;;5.10;2.70;;;;;;;17.80;38.72;100351.66;1689405;83;21320;-41
2021/04/22 10:19:26;;;;;;;6.37;3.15;;;;;;;18.02;39.16;100350.55;1688319;83;21183;-36
2021/04/22 10:22:56;;;;;;;3.95;2.70;;;;;;;18.12;37.24;100350.70;1685262;83;21719;-39
2021/04/22 10:30:00;;;;;;;4.63;3.03;;;;;;;18.16;37.96;100346.19;1683735;83;21323;-41
2021/04/22 10:33:22;;;;;;;4.12;3.20;;;;;;;18.27;39.56;100356.00;1685286;83;21550;-38
2021/04/22 10:36:23;;;;;;;8.85;2.98;;;;;;;18.37;37.49;100355.23;1679291;83;21242;-38
2021/04/22 10:39:06;;;;;;;2.60;2.40;;;;;;;18.82;37.73;100352.94;1676748;83;22056;-37
2021/04/22 10:41:47;;;;;;;4.72;3.00;;;;;;;19.22;37.06;100365.72;1676256;84;21378;-42
2021/04/22 10:44:16;;;;;;;5.72;2.92;;;;;;;19.66;36.68;100356.70;1647602;83;21338;-41
2021/04/22 10:46:45;;;;;;;3.55;2.60;;;;;;;20.13;34.99;100355.37;1682484;82;21191;-43
2021/04/22 10:49:13;;;;;;;3.27;2.47;;;;;;;20.45;34.75;100352.78;1725660;81;21177;-42
2021/04/22 10:51:41;;;;;;;3.72;2.50;;;;;;;20.69;34.76;100334.53;1726523;82;21947;-36
2021/04/22 10:54:17;;;;;;;6.87;2.87;;;;;;;20.87;33.66;100345.34;1700277;81;21194;-41
2021/04/22 10:56:48;;;;;;;4.95;2.90;;;;;;;21.23;33.50;100339.81;1769654;79;21151;-40
2021/04/22 10:59:21;;;;;;;3.47;2.83;;;;;;;21.55;33.93;100308.73;1734420;79;21598;-43
2021/04/22 11:01:50;;;;;;;9.38;2.95;;;;;;;21.43;32.97;100330.11;1761683;79;21136;-42
2021/04/22 11:04:18;;;;;;;4.85;2.80;;;;;;;21.67;33.92;100309.05;1766735;79;21414;-42
2021/04/22 11:06:46;;;;;;;5.42;2.33;;;;;;;21.82;33.31;100329.27;1763856;79;21157;-43
2021/04/22 11:09:22;;;;;;;2.50;2.27;;;;;;;21.39;33.41;100309.88;1765996;79;21819;-38
2021/04/22 11:12:00;;;;;;;3.47;2.50;;;;;;;20.78;33.31;100334.64;1763663;79;21132;-42
2021/04/22 11:14:38;;;;;;;3.83;3.22;;;;;;;20.39;34.78;100333.95;1762424;79;21536;-42
2021/04/22 11:17:06;;;;;;;4.80;3.10;;;;;;;20.05;35.13;100333.08;1762479;79;21137;-38
2021/04/22 11:20:09;;;;;;;3.77;2.72;;;;;;;19.71;36.19;100321.53;1760858;79;21158;-41
2021/04/22 11:22:55;;;;;;;2.52;2.05;;;;;;;19.40;34.72;100320.44;1758560;80;21142;-40
2021/04/22 11:25:23;;;;;;;2.52;2.33;;;;;;;19.36;36.42;100318.80;1762163;79;21180;-42
2021/04/22 11:27:53;;;;;;;4.35;2.80;;;;;;;19.27;36.04;100324.00;1764431;79;21662;-36
2021/04/22 11:30:29;;;;;;;3.45;2.90;;;;;;;19.12;35.31;100330.69;1703257;82;21497;-39
2021/04/22 11:32:59;;;;;;;3.62;2.75;;;;;;;19.12;35.32;100317.89;1718648;81;21643;-40
2021/04/22 11:35:28;;;;;;;4.42;2.70;;;;;;;19.38;35.44;100326.27;1704964;82;21553;-41
2021/04/22 11:38:07;;;;;;;3.20;2.12;;;;;;;19.69;34.77;100315.42;1709774;82;21849;-36
2021/04/22 11:40:45;;;;;;;6.35;2.70;;;;;;;19.93;34.51;100309.19;1711577;82;21163;-41
2021/04/22 11:43:23;;;;;;;4.70;2.80;;;;;;;20.23;33.84;100312.90;1772548;79;21308;-37
2021/04/22 11:45:56;;;;;;;2.90;2.70;;;;;;;20.44;34.43;100304.08;1762083;79;21482;-41
2021/04/22 11:48:24;;;;;;;2.47;2.25;;;;;;;20.25;32.07;100307.09;1734395;81;21746;-42
2021/04/22 11:50:54;;;;;;;3.62;2.55;;;;;;;20.11;34.34;100277.53;1702050;82;21160;-37
2021/04/22 11:53:23;;;;;;;3.47;2.60;;;;;;;20.08;33.78;100285.64;1716569;82;21167;-42
2021/04/22 11:55:53;;;;;;;3.47;2.50;;;;;;;20.12;33.82;100291.21;1709675;82;21542;-41
2021/04/22 11:58:23;;;;;;;3.95;2.55;;;;;;;20.15;33.10;100299.07;1708614;82;21604;-43
2021/04/22 12:00:56;;;;;;;3.92;2.60;;;;;;;20.15;32.86;100291.11;1716049;82;21081;-42
2021/04/22 12:03:36;;;;;;;4.20;2.22;;;;;;;20.14;31.90;100285.39;1706098;82;22255;-42
2021/04/22 12:06:07;;;;;;;4.97;2.30;;;;;;;20.14;33.58;100285.39;1703401;82;21588;-37
2021/04/22 12:08:39;;;;;;;4.37;2.50;;;;;;;19.90;32.83;100286.75;1709766;82;21175;-42
2021/04/22 12:11:08;;;;;;;;;;;;;;;19.68;33.56;100278.34;1717292;82;21203;-42
2021/04/22 12:13:37;;;;;;;4.87;2.30;;;;;;;19.53;33.77;100275.28;1703453;84;20172;-36
2021/04/22 12:16:07;;;;;;;5.35;2.77;;;;;;;19.55;34.04;100287.20;1703365;82;21507;-41
2021/04/22 12:18:44;;;;;;;3.15;2.35;;;;;;;19.58;32.96;100273.36;1693604;84;21217;-42
2021/04/22 12:21:18;;;;;;;3.05;2.75;;;;;;;19.49;33.59;100279.00;1694455;82;21210;-42
2021/04/22 12:23:51;;;;;;;3.02;2.72;;;;;;;19.35;32.79;100276.83;1700667;82;21148;-43
2021/04/22 12:26:25;;;;;;;3.20;2.45;;;;;;;19.35;33.57;100274.17;1709186;82;21276;-37
2021/04/22 12:29:09;;;;;;;4.45;2.30;;;;;;;19.46;33.37;100272.47;1719807;82;21459;-38
2021/04/22 12:31:41;;;;;;;4.97;2.70;;;;;;;19.44;32.41;100272.99;1702381;83;21199;-38
2021/04/22 12:34:22;;;;;;;3.20;2.47;;;;;;;19.37;32.93;100267.05;1706005;82;21213;-37
2021/04/22 12:36:59;;;;;;;4.83;2.37;;;;;;;19.46;33.35;100274.25;1705370;83;21196;-38
2021/04/22 12:39:32;;;;;;;5.30;2.20;;;;;;;19.63;33.29;100268.75;1704863;83;21191;-37
2021/04/22 12:42:13;;;;;;;2.62;2.30;;;;;;;19.85;32.34;100266.62;1709228;84;21171;-38
2021/04/22 12:45:00;;;;;;;4.92;2.50;;;;;;;20.05;31.84;100257.39;1693476;83;21622;-36
2021/04/22 12:47:55;;;;;;;3.42;2.50;;;;;;;20.14;31.80;100261.03;1689095;84;21762;-36
2021/04/22 12:50:28;;;;;;;4.20;2.47;;;;;;;20.18;33.28;100256.47;1657126;84;21773;-36
2021/04/22 12:53:04;;;;;;;3.17;2.47;;;;;;;20.14;31.42;100257.52;1638324;84;21330;-42
2021/04/22 12:55:34;;;;;;;4.12;2.70;;;;;;;19.75;32.41;100254.16;1651026;85;21243;-36
2021/04/22 12:58:04;;;;;;;6.95;2.70;;;;;;;19.39;32.69;100254.58;1667462;85;21237;-42
2021/04/22 13:00:47;;;;;;;3.10;2.58;;;;;;;19.34;33.32;100244.60;1678773;83;21188;-36
2021/04/22 13:03:24;;;;;;;2.85;2.52;;;;;;;19.54;33.67;100246.53;1671352;85;21172;-40
2021/04/22 13:06:03;;;;;;;5.05;2.92;;;;;;;19.52;31.55;100251.01;1670011;84;21782;-41
2021/04/22 13:08:37;;;;;;;13.43;2.95;;;;;;;19.39;32.41;100236.02;1772746;79;22928;-36
2021/04/22 13:11:06;;;;;;;2.58;2.12;;;;;;;19.49;31.98;100252.93;1726851;82;21203;-35
2021/04/22 13:13:38;;;;;;;5.45;2.67;;;;;;;19.72;32.10;100254.75;1742245;80;21459;-36
2021/04/22 13:16:12;;;;;;;5.12;2.70;;;;;;;19.98;31.55;100233.34;1744072;82;21217;-41
2021/04/22 13:18:41;;;;;;;2.30;2.10;;;;;;;20.33;31.95;100244.34;1765081;80;21572;-41
2021/04/22 13:21:21;;;;;;;5.40;2.30;;;;;;;20.42;29.77;100238.20;1739013;80;21691;-37
2021/04/22 13:23:50;;;;;;;4.22;2.52;;;;;;;20.59;30.52;100224.70;1743504;80;21674;-36
2021/04/22 13:26:29;;;;;;;7.00;2.45;;;;;;;20.95;29.66;100231.55;1743634;80;21217;-36
2021/04/22 13:29:10;;;;;;;2.30;2.12;;;;;;;20.93;29.10;100209.47;1756169;80;21740;-37
2021/04/22 13:31:39;;;;;;;3.45;2.50;;;;;;;20.79;30.14;100227.83;1738308;80;21197;-39
2021/04/22 13:34:12;;;;;;;3.17;2.55;;;;;;;20.50;30.90;100237.91;1729614;82;21192;-37
2021/04/22 13:36:50;;;;;;;4.53;2.45;;;;;;;20.29;32.22;100218.82;1726190;82;21206;-37
2021/04/22 13:39:29;;;;;;;4.87;2.90;;;;;;;20.32;31.15;100226.67;1731727;82;21686;-42
2021/04/22 13:41:57;;;;;;;3.92;2.60;;;;;;;20.36;32.06;100230.95;1734328;82;21151;-37
2021/04/22 13:44:27;;;;;;;8.55;2.20;;;;;;;20.31;31.96;100238.23;1749961;80;21162;-37
2021/04/22 13:47:12;;;;;;;5.40;2.55;;;;;;;20.37;32.27;100235.33;1729684;82;21170;-41
2021/04/22 13:49:41;;;;;;;4.55;2.52;;;;;;;20.57;31.37;100218.10;1744114;80;21197;-37
2021/04/22 13:52:12;;;;;;;5.67;2.50;;;;;;;20.87;31.18;100231.01;1739616;80;21199;-36
2021/04/22 13:54:42;;;;;;;10.70;3.00;;;;;;;20.93;30.70;100206.37;1714418;82;21158;-42
